Terminal Aerodrome Forecast
Issued by NWS Louisville, KY

Home | Current Version | Previous Version | Text Only | Print | Product List | Glossary On
Versions: 1 2 3 4 5 6 7 8 9 10 11 12 13 14 15 16 17 18 19
000
FTUS43 KLMK 300500
TAFSDF
TAF
KSDF 300534Z 3006/3112 VRB04KT 6SM BR SCT025 SCT250
      TEMPO 3006/3007 BKN025
     FM300800 33004KT 6SM BR SCT250
     FM301500 02010KT P6SM SKC
     FM310000 VRB03KT P6SM SKC=

USA.gov is the U.S. government's official web portal to all federal, state and local government web resources and services.